Hyundai Dominion — A8IK7 — position and weather

sailwx.info

Track history (hours):
 
Tides and Currents Weather Stations Pressure Air Temp Water Temp Dewpoint Dewpoint Depression Visibility Wind Speed Wind Dir Waves Ship Positions

Hyundai Dominion

Last reported at 2015-Jan-28 03:32 UTC. Time now 2015-Jan-28 04:15 UTC.
Position N 01°14' E 103°54'.

Length 304 m; draft 13.8 m.

Type: Ship (hazmat cat A). MMSI: 636090990.

Date/timePositionNaut miles runAvg speedWind from/ knotsBaromVisibWave heightAir tempDewpointWater temp
2015-Jan-28 03:32N 01°14' E 103°54'0 0.1
2015-Jan-28 02:23N 01°14' E 103°54'2 2.4
2015-Jan-28 01:29N 01°13' E 103°52'7 6.8
2015-Jan-28 00:28N 01°16' E 103°46'0 0.3
2015-Jan-27 23:28N 01°16' E 103°46'0 0.0
2015-Jan-27 22:31N 01°16' E 103°46'0 0.0
2015-Jan-27 21:28N 01°16' E 103°46'0 0.0
2015-Jan-27 20:25N 01°16' E 103°46'0 0.0
2015-Jan-27 19:13N 01°16' E 103°46'0 0.0
2015-Jan-27 17:13N 01°16' E 103°46'0 0.0
2015-Jan-27 16:25N 01°16' E 103°46'0 0.0
2015-Jan-27 15:25N 01°16' E 103°46'0 0.0
2015-Jan-27 12:16N 01°16' E 103°46'0 0.0
2015-Jan-27 11:07N 01°16' E 103°46'0 0.0
2015-Jan-27 10:19N 01°16' E 103°46'0 0.0
2015-Jan-27 08:16N 01°16' E 103°46'0 0.0
2015-Jan-27 06:19N 01°16' E 103°46'0 0.0
2015-Jan-27 01:16N 01°16' E 103°46'0 0.0
2015-Jan-27 00:10N 01°16' E 103°46'0 0.0
2015-Jan-26 23:31N 01°16' E 103°46'0 0.1
2015-Jan-26 22:28N 01°16' E 103°46'7 7.3
2015-Jan-26 21:33N 01°13' E 103°52'8 7.6
2015-Jan-26 20:33N 01°16' E 103°59'1111.3
2015-Jan-26 19:33N 01°17' E 104°10'  
2015-Jan-23 12:25N 22°17' E 114°06'1310.9
2015-Jan-23 11:16N 22°22' E 113°54'5 7.4
2015-Jan-23 10:33N 22°27' E 113°53'1 0.5
2015-Jan-23 09:19N 22°28' E 113°53'0 0.0
2015-Jan-23 08:25N 22°28' E 113°53'0 0.0
2015-Jan-23 07:31N 22°28' E 113°53'0 0.0
2015-Jan-23 06:31N 22°28' E 113°53'0 0.0
2015-Jan-23 05:32N 22°28' E 113°53'0 0.0
2015-Jan-23 04:31N 22°28' E 113°53'0 0.0
2015-Jan-23 03:13N 22°28' E 113°53'0 0.0
2015-Jan-23 02:31N 22°28' E 113°53'0 0.0
2015-Jan-23 01:33N 22°28' E 113°53'3 3.0
2015-Jan-23 00:33N 22°25' E 113°53'14 7.1
2015-Jan-22 22:33N 22°17' E 114°06'14 6.9
2015-Jan-22 20:33N 22°09' E 114°18'6 5.3
2015-Jan-22 19:30N 22°07' E 114°23'7 7.4
2015-Jan-22 18:31N 22°06' E 114°15'7 7.6
2015-Jan-22 17:33N 22°05' E 114°08'15 7.6
2015-Jan-22 15:31N 22°06' E 113°51'1111.2
2015-Jan-22 14:33N 22°16' E 113°48'1413.4
2015-Jan-22 13:32N 22°30' E 113°45'6 0.4
2015-Jan-21 23:32N 22°24' E 113°46'1013.7
2015-Jan-21 22:49N 22°15' E 113°49'112.9
2015-Jan-21 22:46N 22°14' E 113°49'315.8
2015-Jan-21 22:33N 22°11' E 113°50'6 5.8
2015-Jan-21 21:33N 22°06' E 113°54'18912.5
2015-Jan-21 06:24N 23°01' E 117°10'5814.9
2015-Jan-21 02:32N 23°40' E 117°56'1616.5
2015-Jan-21 01:33N 23°49' E 118°11'1616.1
2015-Jan-21 00:33N 23°59' E 118°25'2416.4
2015-Jan-20 23:05N 24°14' E 118°45'1216.7
2015-Jan-20 22:23N 24°21' E 118°55'1416.9
2015-Jan-20 21:33N 24°30' E 119°07'34417.7
2015-Jan-20 02:08N 29°23' E 122°30'1117.7
2015-Jan-20 01:31N 29°34' E 122°30'1515.3
2015-Jan-20 00:32N 29°45' E 122°18'9 9.5
2015-Jan-19 23:33N 29°52' E 122°11'8 8.0
2015-Jan-19 22:33N 29°54' E 122°02'0 0.0
2015-Jan-19 21:33N 29°54' E 122°02'0 0.0
2015-Jan-19 20:21N 29°54' E 122°02'0 0.0
2015-Jan-19 18:33N 29°54' E 122°02'0 0.0
2015-Jan-19 17:27N 29°54' E 122°02'0 0.0
2015-Jan-19 16:09N 29°54' E 122°02'0 0.0
2015-Jan-19 15:27N 29°54' E 122°02'0 0.0
2015-Jan-19 14:21N 29°54' E 122°02'0 0.0
2015-Jan-19 13:33N 29°54' E 122°02'0 0.0
2015-Jan-19 12:27N 29°54' E 122°02'0 0.0
2015-Jan-19 11:33N 29°54' E 122°02'0 0.0
2015-Jan-19 10:33N 29°54' E 122°02'0 0.0
2015-Jan-19 09:15N 29°54' E 122°02'0 0.0
2015-Jan-19 07:27N 29°54' E 122°02'0 0.0
2015-Jan-19 06:21N 29°54' E 122°02'0 0.0
2015-Jan-19 04:21N 29°54' E 122°02'0 0.0
2015-Jan-19 03:27N 29°54' E 122°02'0 0.0
2015-Jan-19 02:15N 29°54' E 122°02'1 1.3
2015-Jan-19 01:33N 29°54' E 122°03'10 9.6
2015-Jan-19 00:33N 29°50' E 122°13'1010.0
2015-Jan-18 23:33N 29°45' E 122°23'1413.7
2015-Jan-18 22:33N 29°46' E 122°39'3712.3
2015-Jan-18 19:30N 30°22' E 122°51'1714.8
2015-Jan-18 18:22N 30°30' E 122°34'1316.4
2015-Jan-18 17:33N 30°33' E 122°19'1312.0
2015-Jan-18 16:29N 30°37' E 122°05'0 0.0
2015-Jan-18 15:26N 30°37' E 122°05'0 0.0
2015-Jan-18 14:14N 30°37' E 122°05'0 0.0
2015-Jan-18 13:32N 30°37' E 122°05'0 0.0
2015-Jan-18 12:32N 30°37' E 122°05'0 0.0
2015-Jan-18 11:32N 30°37' E 122°05'0 0.0
2015-Jan-18 10:23N 30°37' E 122°05'0 0.0
2015-Jan-18 09:20N 30°37' E 122°05'0 0.0
2015-Jan-18 08:32N 30°37' E 122°05'0 0.0
2015-Jan-18 07:32N 30°37' E 122°05'0 0.0
2015-Jan-18 06:34N 30°37' E 122°05'7 6.6
2015-Jan-18 05:34N 30°34' E 122°12'1010.0
2015-Jan-18 04:33N 30°32' E 122°23'1211.7
2015-Jan-18 03:33N 30°29' E 122°37'  
Track history (hours):
 
Tides and Currents Weather Stations Pressure Air Temp Water Temp Dewpoint Dewpoint Depression Visibility Wind Speed Wind Dir Waves Ship Positions

Hyundai Dominion

Last reported at 2015-Jan-28 03:32 UTC. Time now 2015-Jan-28 04:15 UTC.
Position N 01°14' E 103°54'.

Length 304 m; draft 13.8 m.

Type: Ship (hazmat cat A). MMSI: 636090990.

Date/timePositionNaut miles runAvg speedWind from/ knotsBaromVisibWave heightAir tempDewpointWater temp
2015-Jan-28 03:32N 01°14' E 103°54'0 0.1
2015-Jan-28 02:23N 01°14' E 103°54'2 2.4
2015-Jan-28 01:29N 01°13' E 103°52'7 6.8
2015-Jan-28 00:28N 01°16' E 103°46'0 0.3
2015-Jan-27 23:28N 01°16' E 103°46'0 0.0
2015-Jan-27 22:31N 01°16' E 103°46'0 0.0
2015-Jan-27 21:28N 01°16' E 103°46'0 0.0
2015-Jan-27 20:25N 01°16' E 103°46'0 0.0
2015-Jan-27 19:13N 01°16' E 103°46'0 0.0
2015-Jan-27 17:13N 01°16' E 103°46'0 0.0
2015-Jan-27 16:25N 01°16' E 103°46'0 0.0
2015-Jan-27 15:25N 01°16' E 103°46'0 0.0
2015-Jan-27 12:16N 01°16' E 103°46'0 0.0
2015-Jan-27 11:07N 01°16' E 103°46'0 0.0
2015-Jan-27 10:19N 01°16' E 103°46'0 0.0
2015-Jan-27 08:16N 01°16' E 103°46'0 0.0
2015-Jan-27 06:19N 01°16' E 103°46'0 0.0
2015-Jan-27 01:16N 01°16' E 103°46'0 0.0
2015-Jan-27 00:10N 01°16' E 103°46'0 0.0
2015-Jan-26 23:31N 01°16' E 103°46'0 0.1
2015-Jan-26 22:28N 01°16' E 103°46'7 7.3
2015-Jan-26 21:33N 01°13' E 103°52'8 7.6
2015-Jan-26 20:33N 01°16' E 103°59'1111.3
2015-Jan-26 19:33N 01°17' E 104°10'  
2015-Jan-23 12:25N 22°17' E 114°06'1310.9
2015-Jan-23 11:16N 22°22' E 113°54'5 7.4
2015-Jan-23 10:33N 22°27' E 113°53'1 0.5
2015-Jan-23 09:19N 22°28' E 113°53'0 0.0
2015-Jan-23 08:25N 22°28' E 113°53'0 0.0
2015-Jan-23 07:31N 22°28' E 113°53'0 0.0
2015-Jan-23 06:31N 22°28' E 113°53'0 0.0
2015-Jan-23 05:32N 22°28' E 113°53'0 0.0
2015-Jan-23 04:31N 22°28' E 113°53'0 0.0
2015-Jan-23 03:13N 22°28' E 113°53'0 0.0
2015-Jan-23 02:31N 22°28' E 113°53'0 0.0
2015-Jan-23 01:33N 22°28' E 113°53'3 3.0
2015-Jan-23 00:33N 22°25' E 113°53'14 7.1
2015-Jan-22 22:33N 22°17' E 114°06'14 6.9
2015-Jan-22 20:33N 22°09' E 114°18'6 5.3
2015-Jan-22 19:30N 22°07' E 114°23'7 7.4
2015-Jan-22 18:31N 22°06' E 114°15'7 7.6
2015-Jan-22 17:33N 22°05' E 114°08'15 7.6
2015-Jan-22 15:31N 22°06' E 113°51'1111.2
2015-Jan-22 14:33N 22°16' E 113°48'1413.4
2015-Jan-22 13:32N 22°30' E 113°45'6 0.4
2015-Jan-21 23:32N 22°24' E 113°46'1013.7
2015-Jan-21 22:49N 22°15' E 113°49'112.9
2015-Jan-21 22:46N 22°14' E 113°49'315.8
2015-Jan-21 22:33N 22°11' E 113°50'6 5.8
2015-Jan-21 21:33N 22°06' E 113°54'18912.5
2015-Jan-21 06:24N 23°01' E 117°10'5814.9
2015-Jan-21 02:32N 23°40' E 117°56'1616.5
2015-Jan-21 01:33N 23°49' E 118°11'1616.1
2015-Jan-21 00:33N 23°59' E 118°25'2416.4
2015-Jan-20 23:05N 24°14' E 118°45'1216.7
2015-Jan-20 22:23N 24°21' E 118°55'1416.9
2015-Jan-20 21:33N 24°30' E 119°07'34417.7
2015-Jan-20 02:08N 29°23' E 122°30'1117.7
2015-Jan-20 01:31N 29°34' E 122°30'1515.3
2015-Jan-20 00:32N 29°45' E 122°18'9 9.5
2015-Jan-19 23:33N 29°52' E 122°11'8 8.0
2015-Jan-19 22:33N 29°54' E 122°02'0 0.0
2015-Jan-19 21:33N 29°54' E 122°02'0 0.0
2015-Jan-19 20:21N 29°54' E 122°02'0 0.0
2015-Jan-19 18:33N 29°54' E 122°02'0 0.0
2015-Jan-19 17:27N 29°54' E 122°02'0 0.0
2015-Jan-19 16:09N 29°54' E 122°02'0 0.0
2015-Jan-19 15:27N 29°54' E 122°02'0 0.0
2015-Jan-19 14:21N 29°54' E 122°02'0 0.0
2015-Jan-19 13:33N 29°54' E 122°02'0 0.0
2015-Jan-19 12:27N 29°54' E 122°02'0 0.0
2015-Jan-19 11:33N 29°54' E 122°02'0 0.0
2015-Jan-19 10:33N 29°54' E 122°02'0 0.0
2015-Jan-19 09:15N 29°54' E 122°02'0 0.0
2015-Jan-19 07:27N 29°54' E 122°02'0 0.0
2015-Jan-19 06:21N 29°54' E 122°02'0 0.0
2015-Jan-19 04:21N 29°54' E 122°02'0 0.0
2015-Jan-19 03:27N 29°54' E 122°02'0 0.0
2015-Jan-19 02:15N 29°54' E 122°02'1 1.3
2015-Jan-19 01:33N 29°54' E 122°03'10 9.6
2015-Jan-19 00:33N 29°50' E 122°13'1010.0
2015-Jan-18 23:33N 29°45' E 122°23'1413.7
2015-Jan-18 22:33N 29°46' E 122°39'3712.3
2015-Jan-18 19:30N 30°22' E 122°51'1714.8
2015-Jan-18 18:22N 30°30' E 122°34'1316.4
2015-Jan-18 17:33N 30°33' E 122°19'1312.0
2015-Jan-18 16:29N 30°37' E 122°05'0 0.0
2015-Jan-18 15:26N 30°37' E 122°05'0 0.0
2015-Jan-18 14:14N 30°37' E 122°05'0 0.0
2015-Jan-18 13:32N 30°37' E 122°05'0 0.0
2015-Jan-18 12:32N 30°37' E 122°05'0 0.0
2015-Jan-18 11:32N 30°37' E 122°05'0 0.0
2015-Jan-18 10:23N 30°37' E 122°05'0 0.0
2015-Jan-18 09:20N 30°37' E 122°05'0 0.0
2015-Jan-18 08:32N 30°37' E 122°05'0 0.0
2015-Jan-18 07:32N 30°37' E 122°05'0 0.0
2015-Jan-18 06:34N 30°37' E 122°05'7 6.6
2015-Jan-18 05:34N 30°34' E 122°12'1010.0
2015-Jan-18 04:33N 30°32' E 122°23'1211.7
2015-Jan-18 03:33N 30°29' E 122°37'  

Dump ship's entire track history